Time;durP1;ratioP1;P1;durP2;ratioP2;P2;SDS_P1;SDS_P2;PMS_P1;PMS_P2;Temp;Humidity;BMP_temperature;BMP_pressure;BME280_temperature;BME280_humidity;BME280_pressure;Samples;Min_cycle;Max_cycle;Signal;HPM_P1;HPM_P2
2023/07/29 00:00:49;;;;;;;1.50;1.40;;;25.40;57.60;;;;;;4985711;28;20030;-61
2023/07/29 00:03:15;;;;;;;1.88;1.52;;;25.40;57.50;;;;;;4988031;28;20048;-60
2023/07/29 00:05:41;;;;;;;2.13;1.77;;;25.40;57.50;;;;;;4988571;28;20417;-61
2023/07/29 00:08:07;;;;;;;2.03;1.65;;;25.40;57.50;;;;;;4985024;28;20042;-63
2023/07/29 00:10:35;;;;;;;2.88;1.60;;;25.40;57.50;;;;;;4986702;28;20125;-60
2023/07/29 00:13:01;;;;;;;1.95;1.55;;;25.40;57.50;;;;;;4986156;28;20034;-60
2023/07/29 00:15:27;;;;;;;1.50;1.35;;;25.30;57.40;;;;;;4983213;28;20022;-62
2023/07/29 00:17:53;;;;;;;1.83;1.40;;;25.30;57.40;;;;;;4984384;28;20454;-61
2023/07/29 00:20:19;;;;;;;1.90;1.30;;;25.30;57.40;;;;;;4986152;28;20034;-60
2023/07/29 00:22:44;;;;;;;1.40;1.10;;;25.30;57.40;;;;;;4987426;28;20121;-61
2023/07/29 00:25:10;;;;;;;1.40;1.30;;;25.30;57.30;;;;;;4987484;28;20053;-60
2023/07/29 00:27:36;;;;;;;2.25;1.38;;;25.30;57.30;;;;;;4987874;28;20401;-62
2023/07/29 00:30:03;;;;;;;1.35;1.25;;;25.30;57.20;;;;;;4988935;28;20030;-63
2023/07/29 00:32:30;;;;;;;1.77;1.50;;;25.30;57.20;;;;;;4996634;28;20104;-59
2023/07/29 00:34:56;;;;;;;1.85;1.60;;;25.30;57.20;;;;;;4987935;28;20026;-62
2023/07/29 00:37:21;;;;;;;1.65;1.25;;;25.30;57.30;;;;;;4988768;28;20057;-59
2023/07/29 00:39:47;;;;;;;1.40;1.20;;;25.30;57.20;;;;;;4988347;28;20042;-60
2023/07/29 00:42:13;;;;;;;1.48;1.30;;;25.30;57.20;;;;;;4982057;28;20030;-61
2023/07/29 00:44:39;;;;;;;1.20;1.10;;;25.30;57.20;;;;;;4983043;28;20221;-62
2023/07/29 00:47:06;;;;;;;1.23;1.02;;;25.30;57.10;;;;;;4985822;28;20353;-60
2023/07/29 00:49:33;;;;;;;2.03;1.30;;;25.30;57.10;;;;;;5002723;28;20133;-60
2023/07/29 00:51:59;;;;;;;1.52;1.20;;;25.30;57.10;;;;;;4995518;28;20490;-61
2023/07/29 00:54:25;;;;;;;2.28;1.42;;;25.30;57.10;;;;;;4988962;28;20109;-61
2023/07/29 00:56:51;;;;;;;1.45;1.25;;;25.30;57.00;;;;;;4986056;28;20101;-62
2023/07/29 00:59:17;;;;;;;1.65;1.35;;;25.30;57.00;;;;;;4986782;28;20080;-60
2023/07/29 01:01:43;;;;;;;1.60;1.27;;;25.30;57.00;;;;;;4987057;28;20027;-61
2023/07/29 01:04:09;;;;;;;1.80;1.40;;;25.20;56.90;;;;;;4984498;28;20042;-61
2023/07/29 01:06:50;;;;;;;1.45;1.20;;;25.30;57.00;;;;;;4983755;28;20078;-63
2023/07/29 01:09:30;;;;;;;1.65;1.48;;;25.30;56.90;;;;;;4997190;28;20124;-61
2023/07/29 01:12:22;;;;;;;2.08;1.38;;;25.20;56.80;;;;;;4968976;28;20078;-61
2023/07/29 01:15:09;;;;;;;1.55;1.30;;;25.30;56.90;;;;;;4985837;28;20030;-61
2023/07/29 01:17:46;;;;;;;1.63;1.30;;;25.20;56.80;;;;;;4981219;28;20022;-62
2023/07/29 01:20:15;;;;;;;2.03;1.50;;;25.20;56.90;;;;;;4993973;28;20094;-60
2023/07/29 01:22:42;;;;;;;1.70;1.40;;;25.20;56.90;;;;;;4986429;28;20071;-60
2023/07/29 01:25:08;;;;;;;1.50;1.25;;;25.20;56.90;;;;;;4987429;28;20026;-61
2023/07/29 01:27:34;;;;;;;1.75;1.30;;;25.20;56.90;;;;;;4986894;28;20042;-61
2023/07/29 01:30:05;;;;;;;1.30;1.08;;;25.20;57.60;;;;;;4984011;28;20023;-61
2023/07/29 01:32:59;;;;;;;1.40;1.30;;;25.20;57.00;;;;;;4999989;28;20057;-61
2023/07/29 01:35:51;;;;;;;5.63;1.45;;;25.20;57.00;;;;;;4988945;28;20407;-61
2023/07/29 01:38:31;;;;;;;1.48;1.30;;;25.20;57.00;;;;;;4986900;28;20420;-60
2023/07/29 01:41:01;;;;;;;1.83;1.42;;;25.20;57.10;;;;;;5001267;28;20430;-61
2023/07/29 01:43:28;;;;;;;1.33;1.20;;;25.10;57.10;;;;;;4984195;28;20034;-60
2023/07/29 01:45:56;;;;;;;1.10;1.00;;;25.10;57.10;;;;;;4985194;28;20161;-61
2023/07/29 01:48:22;;;;;;;0.95;0.85;;;25.20;57.10;;;;;;4985862;28;20033;-61
2023/07/29 01:50:49;;;;;;;1.30;1.17;;;25.10;57.00;;;;;;4983414;28;20090;-61
2023/07/29 01:53:15;;;;;;;1.30;1.20;;;25.10;57.00;;;;;;4987397;28;20481;-61
2023/07/29 01:55:44;;;;;;;1.20;1.10;;;25.20;57.00;;;;;;4987319;28;20045;-61
2023/07/29 01:58:10;;;;;;;1.80;1.20;;;25.10;57.00;;;;;;5001599;28;20034;-60
2023/07/29 02:00:37;;;;;;;1.17;0.90;;;25.10;57.00;;;;;;4990506;28;20031;-62
2023/07/29 02:03:03;;;;;;;1.65;1.00;;;25.10;57.00;;;;;;4985671;28;20052;-62
2023/07/29 02:05:29;;;;;;;1.67;1.13;;;25.10;57.00;;;;;;4992148;28;20453;-61
2023/07/29 02:07:55;;;;;;;1.00;1.00;;;25.10;57.00;;;;;;4983031;28;20046;-63
2023/07/29 02:10:21;;;;;;;1.10;1.00;;;25.10;57.00;;;;;;4990622;28;20022;-60
2023/07/29 02:12:47;;;;;;;1.58;1.10;;;25.10;57.00;;;;;;4984979;28;20227;-61
2023/07/29 02:15:13;;;;;;;1.38;1.10;;;25.10;57.00;;;;;;4986995;28;20030;-61
2023/07/29 02:17:41;;;;;;;2.35;0.95;;;25.10;57.00;;;;;;4968427;28;20117;-61
2023/07/29 02:20:08;;;;;;;2.40;0.95;;;25.10;57.10;;;;;;4988679;28;20034;-62
2023/07/29 02:22:34;;;;;;;1.67;1.20;;;25.10;57.10;;;;;;4978788;28;20030;-59
2023/07/29 02:25:00;;;;;;;1.50;1.20;;;25.10;57.10;;;;;;4987744;28;20070;-61
2023/07/29 02:27:27;;;;;;;1.92;1.40;;;25.10;57.10;;;;;;4989431;28;20046;-61
2023/07/29 02:29:54;;;;;;;1.25;1.15;;;25.00;57.10;;;;;;4990142;28;20035;-61
2023/07/29 02:32:20;;;;;;;3.05;1.35;;;25.10;57.20;;;;;;4989555;28;20089;-62
2023/07/29 02:34:46;;;;;;;1.52;1.10;;;25.10;57.30;;;;;;4989944;28;20022;-61
2023/07/29 02:37:12;;;;;;;1.90;1.40;;;25.10;57.30;;;;;;4988395;28;20027;-60
2023/07/29 02:39:38;;;;;;;2.47;1.60;;;25.00;57.30;;;;;;4989224;28;20500;-61
2023/07/29 02:42:04;;;;;;;1.95;1.48;;;25.00;57.30;;;;;;4988556;28;20030;-61
2023/07/29 02:44:30;;;;;;;2.10;1.30;;;25.00;57.30;;;;;;4989080;28;20034;-60
2023/07/29 02:46:56;;;;;;;1.88;1.35;;;25.00;57.40;;;;;;4986569;28;20099;-61
2023/07/29 02:49:23;;;;;;;1.60;1.30;;;25.00;57.40;;;;;;4989103;28;20030;-60
2023/07/29 02:51:49;;;;;;;1.50;1.35;;;25.00;57.50;;;;;;4981427;28;20030;-61
2023/07/29 02:54:15;;;;;;;2.42;1.48;;;25.10;57.50;;;;;;4988304;28;20060;-61
2023/07/29 02:56:41;;;;;;;1.63;1.50;;;25.10;57.60;;;;;;4989185;28;20066;-62
2023/07/29 02:59:07;;;;;;;1.45;1.30;;;25.00;57.60;;;;;;4986346;28;20134;-62
2023/07/29 03:01:33;;;;;;;1.35;1.25;;;25.00;57.60;;;;;;4989223;28;20072;-61
2023/07/29 03:03:59;;;;;;;3.17;1.60;;;25.00;57.70;;;;;;4988060;28;20088;-59
2023/07/29 03:06:25;;;;;;;1.98;1.48;;;25.00;57.70;;;;;;4986636;28;20093;-61
2023/07/29 03:08:51;;;;;;;1.80;1.25;;;25.00;57.70;;;;;;4986239;28;20149;-60
2023/07/29 03:11:17;;;;;;;1.40;1.13;;;25.00;57.70;;;;;;4990865;28;20057;-60
2023/07/29 03:13:43;;;;;;;1.50;1.40;;;25.00;57.70;;;;;;4986037;28;20049;-63
2023/07/29 03:16:14;;;;;;;1.30;1.20;;;25.00;57.70;;;;;;4985698;28;20035;-61
2023/07/29 03:18:45;;;;;;;1.65;1.45;;;25.00;57.80;;;;;;4985162;28;20071;-61
2023/07/29 03:21:11;;;;;;;1.42;1.30;;;25.00;57.80;;;;;;4990511;28;20084;-60
2023/07/29 03:23:37;;;;;;;1.23;1.00;;;25.00;57.80;;;;;;4984466;28;20081;-61
2023/07/29 03:26:09;;;;;;;1.20;1.10;;;25.00;57.80;;;;;;4989221;28;20034;-62
2023/07/29 03:28:41;;;;;;;1.75;1.23;;;25.00;57.80;;;;;;4986283;28;20062;-60
2023/07/29 03:31:07;;;;;;;1.15;1.00;;;25.00;57.80;;;;;;4987844;28;20398;-61
2023/07/29 03:33:34;;;;;;;2.40;1.48;;;25.00;57.80;;;;;;4988169;28;20061;-61
2023/07/29 03:36:00;;;;;;;1.23;1.10;;;25.00;57.80;;;;;;4989376;28;20080;-59
2023/07/29 03:38:26;;;;;;;1.42;1.23;;;25.00;57.80;;;;;;4986815;28;20414;-60
2023/07/29 03:40:53;;;;;;;1.48;1.00;;;25.00;57.70;;;;;;4989373;28;20077;-61
2023/07/29 03:43:19;;;;;;;1.48;1.00;;;25.00;57.70;;;;;;4981375;28;20050;-61
2023/07/29 03:45:45;;;;;;;1.98;1.00;;;25.00;57.70;;;;;;4988717;28;20035;-62
2023/07/29 03:48:11;;;;;;;1.45;1.30;;;25.00;57.60;;;;;;4999367;28;20082;-60
2023/07/29 03:50:37;;;;;;;1.40;1.10;;;25.00;57.60;;;;;;4984737;28;20314;-60
2023/07/29 03:53:04;;;;;;;1.27;1.10;;;25.00;57.60;;;;;;4987691;28;20042;-62
2023/07/29 03:55:30;;;;;;;1.67;1.10;;;25.00;57.50;;;;;;4988153;28;20073;-60
2023/07/29 03:57:57;;;;;;;1.90;1.30;;;25.00;57.40;;;;;;4987088;28;20136;-61
2023/07/29 04:00:23;;;;;;;1.25;1.10;;;24.90;57.30;;;;;;4988489;28;20138;-61
2023/07/29 04:02:55;;;;;;;1.70;1.02;;;24.90;57.30;;;;;;4983815;28;20494;-62
2023/07/29 04:05:21;;;;;;;2.38;1.20;;;25.00;57.30;;;;;;4986631;28;20109;-61
2023/07/29 04:07:47;;;;;;;0.80;0.70;;;24.90;57.20;;;;;;4981955;28;20189;-61
2023/07/29 04:10:13;;;;;;;1.23;1.10;;;25.00;57.20;;;;;;4985210;28;20120;-60
2023/07/29 04:12:39;;;;;;;2.38;1.00;;;25.00;57.20;;;;;;4987515;28;20042;-62
2023/07/29 04:15:07;;;;;;;1.25;0.98;;;25.00;57.10;;;;;;4986041;28;20137;-60
2023/07/29 04:17:33;;;;;;;1.00;0.90;;;24.90;57.10;;;;;;4984676;28;20030;-61
2023/07/29 04:19:59;;;;;;;1.20;0.93;;;24.90;57.00;;;;;;4988106;28;20133;-61
2023/07/29 04:22:31;;;;;;;0.70;0.70;;;24.90;57.00;;;;;;4999704;28;20022;-60
2023/07/29 04:24:57;;;;;;;1.02;0.90;;;24.90;57.00;;;;;;4977218;28;20033;-62
2023/07/29 04:27:23;;;;;;;1.30;0.85;;;24.90;56.90;;;;;;4986073;28;20086;-60
2023/07/29 04:29:49;;;;;;;1.50;0.90;;;24.90;56.90;;;;;;4986437;28;20377;-62
2023/07/29 04:32:14;;;;;;;1.13;0.80;;;24.90;56.80;;;;;;4982865;28;20026;-61
2023/07/29 04:34:41;;;;;;;1.17;0.82;;;24.90;56.80;;;;;;4986012;28;20109;-61
2023/07/29 04:37:07;;;;;;;1.08;0.85;;;24.90;56.80;;;;;;4984907;28;20113;-61
2023/07/29 04:39:33;;;;;;;1.25;0.80;;;24.90;56.80;;;;;;4986009;28;20129;-61
2023/07/29 04:42:00;;;;;;;1.02;0.85;;;24.90;56.80;;;;;;4984601;28;20033;-61
2023/07/29 04:44:26;;;;;;;1.38;0.80;;;24.90;56.70;;;;;;4987623;28;20038;-62
2023/07/29 04:46:52;;;;;;;1.35;0.90;;;24.90;56.70;;;;;;4980449;28;20480;-60
2023/07/29 04:49:18;;;;;;;1.00;0.70;;;24.90;56.60;;;;;;4984788;28;20125;-60
2023/07/29 04:51:44;;;;;;;0.80;0.70;;;24.90;56.50;;;;;;4986916;28;20106;-61
2023/07/29 04:54:10;;;;;;;1.00;0.70;;;24.90;56.50;;;;;;4986280;28;20125;-61
2023/07/29 04:56:36;;;;;;;0.85;0.77;;;24.90;56.40;;;;;;4984867;28;20054;-61
2023/07/29 04:59:01;;;;;;;0.90;0.80;;;24.90;56.40;;;;;;4986479;28;20084;-60
2023/07/29 05:01:27;;;;;;;1.27;0.73;;;24.90;56.30;;;;;;4987450;28;20071;-61
2023/07/29 05:03:53;;;;;;;1.30;0.63;;;24.90;56.30;;;;;;4986405;28;20370;-62
2023/07/29 05:06:19;;;;;;;0.63;0.63;;;24.90;56.20;;;;;;4985423;28;20078;-62
2023/07/29 05:08:45;;;;;;;1.27;0.70;;;24.90;56.10;;;;;;4984638;28;20406;-59
2023/07/29 05:11:11;;;;;;;1.63;0.90;;;24.90;56.10;;;;;;4983859;28;20042;-61
2023/07/29 05:13:37;;;;;;;0.65;0.55;;;24.90;56.00;;;;;;4984581;28;20075;-60
2023/07/29 05:16:04;;;;;;;0.68;0.68;;;24.90;56.00;;;;;;4984078;28;20034;-62
2023/07/29 05:18:29;;;;;;;1.25;0.82;;;24.90;55.90;;;;;;4980772;28;20048;-60
2023/07/29 05:20:55;;;;;;;0.93;0.70;;;24.90;55.90;;;;;;4977604;28;20030;-61
2023/07/29 05:23:22;;;;;;;0.57;0.55;;;24.90;55.80;;;;;;4987338;28;20362;-60
2023/07/29 05:25:48;;;;;;;1.10;0.95;;;24.90;55.70;;;;;;4986174;28;20096;-61
2023/07/29 05:28:13;;;;;;;1.00;0.57;;;24.90;55.70;;;;;;4985172;28;20418;-61
2023/07/29 05:30:40;;;;;;;1.00;0.80;;;24.90;55.60;;;;;;4990602;28;20019;-61
2023/07/29 05:33:09;;;;;;;1.17;0.80;;;24.90;55.60;;;;;;4986931;28;20479;-63
2023/07/29 05:35:35;;;;;;;0.90;0.70;;;24.90;55.50;;;;;;4989972;28;20027;-61
2023/07/29 05:38:03;;;;;;;1.10;0.68;;;24.90;55.40;;;;;;4989573;28;20034;-62
2023/07/29 05:40:29;;;;;;;0.68;0.60;;;24.90;55.40;;;;;;4989137;28;20097;-61
2023/07/29 05:42:56;;;;;;;0.93;0.80;;;24.90;55.30;;;;;;4974356;28;20034;-62
2023/07/29 05:45:22;;;;;;;0.77;0.77;;;24.90;55.30;;;;;;4986888;28;20131;-61
2023/07/29 05:47:48;;;;;;;0.88;0.57;;;24.90;55.20;;;;;;4990761;28;20038;-62
2023/07/29 05:50:14;;;;;;;0.90;0.70;;;24.90;55.10;;;;;;4990911;28;20481;-60
2023/07/29 05:52:40;;;;;;;0.75;0.57;;;24.90;55.10;;;;;;4988934;28;20211;-62
2023/07/29 05:55:06;;;;;;;0.82;0.60;;;24.90;55.10;;;;;;4989846;28;20446;-60
2023/07/29 05:57:32;;;;;;;1.23;0.70;;;24.90;55.00;;;;;;4989506;28;20042;-60
2023/07/29 05:59:58;;;;;;;0.80;0.70;;;24.90;55.00;;;;;;4991319;28;20091;-62
2023/07/29 06:02:24;;;;;;;0.70;0.70;;;24.90;54.90;;;;;;4984410;28;20046;-61
2023/07/29 06:04:51;;;;;;;0.93;0.80;;;24.90;54.90;;;;;;4984127;28;20022;-60
2023/07/29 06:07:17;;;;;;;1.35;0.75;;;24.90;54.90;;;;;;4982975;28;20069;-62
2023/07/29 06:09:43;;;;;;;0.80;0.73;;;24.90;54.80;;;;;;4984373;28;20035;-62
2023/07/29 06:12:09;;;;;;;0.98;0.80;;;24.90;54.80;;;;;;4987547;28;20109;-61
2023/07/29 06:14:35;;;;;;;1.67;0.90;;;24.90;54.80;;;;;;4988396;28;20136;-61
2023/07/29 06:17:01;;;;;;;0.88;0.60;;;24.90;54.80;;;;;;4985729;28;20129;-61
2023/07/29 06:19:27;;;;;;;0.70;0.70;;;24.90;54.70;;;;;;4987525;28;20050;-61
2023/07/29 06:21:55;;;;;;;1.73;0.90;;;24.90;54.70;;;;;;4987375;28;20061;-61
2023/07/29 06:24:21;;;;;;;1.10;0.80;;;24.90;54.70;;;;;;4984713;28;20038;-62
2023/07/29 06:26:47;;;;;;;1.15;0.98;;;25.00;54.70;;;;;;4987227;28;20034;-61
2023/07/29 06:29:13;;;;;;;0.90;0.77;;;24.90;54.60;;;;;;4989866;28;20103;-61
2023/07/29 06:31:39;;;;;;;1.35;0.88;;;24.90;54.60;;;;;;4986950;28;20399;-61
2023/07/29 06:34:05;;;;;;;1.60;0.90;;;25.00;54.70;;;;;;4989476;28;20038;-62
2023/07/29 06:36:31;;;;;;;1.40;1.00;;;25.00;54.70;;;;;;4988000;28;20034;-63
2023/07/29 06:38:56;;;;;;;1.10;0.80;;;25.00;54.70;;;;;;4985933;28;20022;-63
2023/07/29 06:41:22;;;;;;;0.93;0.80;;;25.00;54.70;;;;;;4986843;28;20030;-63
2023/07/29 06:43:49;;;;;;;1.30;0.93;;;25.00;54.70;;;;;;4968497;28;20054;-61
2023/07/29 06:46:15;;;;;;;1.55;0.90;;;25.00;54.70;;;;;;4989582;28;20160;-62
2023/07/29 06:48:41;;;;;;;1.33;0.80;;;25.00;54.60;;;;;;4989960;28;20077;-62
2023/07/29 06:51:06;;;;;;;0.60;0.60;;;25.00;54.50;;;;;;4989603;28;20031;-62
2023/07/29 06:53:32;;;;;;;2.15;0.80;;;25.10;54.60;;;;;;4989991;28;20026;-60
2023/07/29 06:55:59;;;;;;;1.73;1.10;;;25.00;54.50;;;;;;4981567;28;20041;-61
2023/07/29 06:58:25;;;;;;;0.90;0.80;;;25.00;54.50;;;;;;4982407;28;20049;-60
2023/07/29 07:00:50;;;;;;;1.02;0.80;;;25.10;54.50;;;;;;4990185;28;20102;-60
2023/07/29 07:03:16;;;;;;;1.63;0.95;;;25.10;54.50;;;;;;4989822;28;20030;-61
2023/07/29 07:05:42;;;;;;;5.10;1.30;;;25.10;54.60;;;;;;4990388;28;20160;-60
2023/07/29 07:08:08;;;;;;;2.83;1.02;;;25.10;54.60;;;;;;4988505;28;20077;-62
2023/07/29 07:10:34;;;;;;;1.25;0.80;;;25.10;54.60;;;;;;4989349;28;20902;-60
2023/07/29 07:13:00;;;;;;;1.42;0.73;;;25.20;54.60;;;;;;4989878;28;20058;-61
2023/07/29 07:15:26;;;;;;;1.48;0.90;;;25.20;54.60;;;;;;4989411;28;20030;-61
2023/07/29 07:17:52;;;;;;;1.95;1.02;;;25.20;54.50;;;;;;4985459;28;20045;-60
2023/07/29 07:20:18;;;;;;;1.30;1.00;;;25.20;54.50;;;;;;4985152;28;20027;-60
2023/07/29 07:22:44;;;;;;;1.48;0.88;;;25.20;54.50;;;;;;4989102;28;20087;-60
2023/07/29 07:25:10;;;;;;;1.20;1.02;;;25.20;54.40;;;;;;4990283;28;20078;-61
2023/07/29 07:27:36;;;;;;;1.85;1.02;;;25.20;54.40;;;;;;4987882;28;20078;-60
2023/07/29 07:30:03;;;;;;;2.05;0.95;;;25.20;54.40;;;;;;4986794;28;20034;-61
2023/07/29 07:32:29;;;;;;;1.58;1.00;;;25.20;54.30;;;;;;4984412;28;20390;-62
2023/07/29 07:34:55;;;;;;;3.30;1.10;;;25.20;54.40;;;;;;4988340;28;20041;-60
2023/07/29 07:37:21;;;;;;;1.33;1.00;;;25.20;54.30;;;;;;4989108;28;20450;-60
2023/07/29 07:39:47;;;;;;;1.55;1.00;;;25.20;54.30;;;;;;4988895;28;20041;-62
2023/07/29 07:42:12;;;;;;;1.17;0.93;;;25.20;54.30;;;;;;4990382;28;20393;-61
2023/07/29 07:44:38;;;;;;;3.40;1.00;;;25.20;54.30;;;;;;4986076;28;20302;-60
2023/07/29 07:47:08;;;;;;;1.55;0.93;;;25.30;54.30;;;;;;4985169;28;20042;-63
2023/07/29 07:49:33;;;;;;;1.20;0.80;;;25.30;54.30;;;;;;4989638;28;20081;-61
2023/07/29 07:52:00;;;;;;;1.45;0.90;;;25.30;54.30;;;;;;4988355;28;20555;-62
2023/07/29 07:54:25;;;;;;;1.20;0.80;;;25.30;54.20;;;;;;4987663;28;20086;-61
2023/07/29 07:56:51;;;;;;;1.70;0.88;;;25.30;54.20;;;;;;4986064;28;20073;-60
2023/07/29 07:59:17;;;;;;;1.30;1.00;;;25.30;54.20;;;;;;4984986;28;20046;-63
2023/07/29 08:01:43;;;;;;;1.58;1.00;;;25.30;54.20;;;;;;4986881;28;20030;-61
2023/07/29 08:04:09;;;;;;;1.48;0.82;;;25.30;54.20;;;;;;4983072;28;20053;-61
2023/07/29 08:06:35;;;;;;;1.73;1.05;;;25.30;54.20;;;;;;4982759;28;20042;-61
2023/07/29 08:09:01;;;;;;;1.38;0.85;;;25.30;54.30;;;;;;4984739;28;20034;-62
2023/07/29 08:11:27;;;;;;;1.00;0.80;;;25.30;54.30;;;;;;4982502;28;20043;-62
2023/07/29 08:13:53;;;;;;;1.60;1.10;;;25.30;54.30;;;;;;4987602;28;20074;-61
2023/07/29 08:16:18;;;;;;;1.48;0.70;;;25.30;54.30;;;;;;4988178;28;20125;-63
2023/07/29 08:18:44;;;;;;;1.15;0.80;;;25.30;54.30;;;;;;4986600;28;20026;-60
2023/07/29 08:21:10;;;;;;;1.00;0.90;;;25.30;54.30;;;;;;4989285;28;20078;-63
2023/07/29 08:23:37;;;;;;;1.00;0.90;;;25.30;54.30;;;;;;4986780;28;20046;-60
2023/07/29 08:26:05;;;;;;;0.98;0.70;;;25.30;54.30;;;;;;4987036;28;20045;-58
2023/07/29 08:28:33;;;;;;;0.95;0.77;;;25.30;54.30;;;;;;4990359;28;20046;-62
2023/07/29 08:30:59;;;;;;;1.40;0.80;;;25.30;54.30;;;;;;4991734;28;20041;-62
2023/07/29 08:33:25;;;;;;;1.13;0.65;;;25.30;54.30;;;;;;4992438;28;20349;-63
2023/07/29 08:35:51;;;;;;;1.05;0.73;;;25.30;54.30;;;;;;4992068;28;20046;-60
2023/07/29 08:38:17;;;;;;;1.48;0.80;;;25.30;54.30;;;;;;4990811;28;20335;-61
2023/07/29 08:40:57;;;;;;;0.85;0.82;;;25.40;54.30;;;;;;4989096;28;20026;-62
2023/07/29 08:43:30;;;;;;;0.93;0.60;;;25.30;54.20;;;;;;4986832;28;20382;-61
2023/07/29 08:45:57;;;;;;;2.10;0.70;;;25.30;54.20;;;;;;4987714;28;20310;-62
2023/07/29 08:48:41;;;;;;;0.90;0.70;;;25.30;54.20;;;;;;4987018;28;20486;-61
2023/07/29 08:51:11;;;;;;;0.70;0.70;;;25.30;54.20;;;;;;4986891;28;20026;-61
2023/07/29 08:53:38;;;;;;;0.77;0.60;;;25.30;54.30;;;;;;4988319;28;20030;-61
2023/07/29 08:56:05;;;;;;;1.35;0.80;;;25.30;54.20;;;;;;4985934;28;20046;-60
2023/07/29 08:58:31;;;;;;;0.75;0.68;;;25.30;54.20;;;;;;4989247;28;20272;-61
2023/07/29 09:00:57;;;;;;;1.05;0.70;;;25.30;54.20;;;;;;4988650;28;20437;-62
2023/07/29 09:03:23;;;;;;;1.05;0.70;;;25.40;54.30;;;;;;4988852;28;20026;-61
2023/07/29 09:05:50;;;;;;;0.95;0.77;;;25.40;54.20;;;;;;4993393;28;20031;-60
2023/07/29 09:08:17;;;;;;;0.95;0.70;;;25.40;54.20;;;;;;4988899;28;20311;-62
2023/07/29 09:10:43;;;;;;;1.05;0.80;;;25.40;54.10;;;;;;4991755;28;20032;-61
2023/07/29 09:13:09;;;;;;;1.17;0.70;;;25.40;54.10;;;;;;4986926;28;20027;-60
2023/07/29 09:15:36;;;;;;;1.20;0.68;;;25.40;54.10;;;;;;4991515;28;20105;-60
2023/07/29 09:18:15;;;;;;;0.75;0.70;;;25.40;54.20;;;;;;4991445;28;20113;-61
2023/07/29 09:20:41;;;;;;;2.00;0.88;;;25.50;54.50;;;;;;4986369;28;20365;-61
2023/07/29 09:23:10;;;;;;;0.95;0.60;;;25.50;54.50;;;;;;4992309;28;20022;-62
2023/07/29 09:25:37;;;;;;;2.70;0.95;;;25.50;54.40;;;;;;4992028;28;20037;-62
2023/07/29 09:28:10;;;;;;;1.00;0.82;;;25.50;54.30;;;;;;4990984;28;20038;-62
2023/07/29 09:30:40;;;;;;;1.30;0.80;;;25.50;54.20;;;;;;4988135;28;20491;-62
2023/07/29 09:33:07;;;;;;;5.80;1.35;;;25.50;54.30;;;;;;4990075;28;20334;-60
2023/07/29 09:35:37;;;;;;;1.15;0.80;;;25.50;54.50;;;;;;4988080;28;20030;-64
2023/07/29 09:38:07;;;;;;;0.88;0.65;;;25.60;54.70;;;;;;4989378;28;20034;-61
2023/07/29 09:40:37;;;;;;;1.55;0.68;;;25.50;54.80;;;;;;4987977;28;21439;-60
2023/07/29 09:43:08;;;;;;;1.33;0.77;;;25.60;55.00;;;;;;4986867;28;20310;-60
2023/07/29 09:45:36;;;;;;;0.95;0.80;;;25.60;54.90;;;;;;4992118;28;20416;-61
2023/07/29 09:48:03;;;;;;;1.40;0.65;;;25.60;54.90;;;;;;4989239;28;20326;-59
2023/07/29 09:50:29;;;;;;;1.17;0.47;;;25.60;54.90;;;;;;4992251;28;20298;-62
2023/07/29 09:52:58;;;;;;;1.83;0.82;;;25.60;54.80;;;;;;4990715;28;20018;-60
2023/07/29 09:55:29;;;;;;;0.80;0.65;;;25.60;54.70;;;;;;4990788;28;20365;-61
2023/07/29 09:58:06;;;;;;;2.55;1.00;;;25.70;54.60;;;;;;4989633;28;20095;-61
2023/07/29 10:00:32;;;;;;;4.63;1.00;;;25.70;54.60;;;;;;4990329;28;20023;-64
2023/07/29 10:02:59;;;;;;;0.80;0.57;;;25.60;54.50;;;;;;4991565;28;20169;-64
2023/07/29 10:05:29;;;;;;;0.80;0.65;;;25.70;54.50;;;;;;4990612;28;20038;-65
2023/07/29 10:07:56;;;;;;;2.85;0.60;;;25.70;54.40;;;;;;4987604;28;20050;-67
2023/07/29 10:10:22;;;;;;;1.00;0.70;;;25.70;54.40;;;;;;4991326;28;20041;-67
2023/07/29 10:12:49;;;;;;;1.55;0.70;;;25.70;54.40;;;;;;4988306;28;20042;-62
2023/07/29 10:15:17;;;;;;;1.38;0.60;;;25.80;54.50;;;;;;4999243;28;20081;-63
2023/07/29 10:17:47;;;;;;;3.38;0.80;;;25.80;54.40;;;;;;4996370;28;20452;-64
2023/07/29 10:20:14;;;;;;;1.85;0.60;;;25.80;54.30;;;;;;4993126;28;20031;-61
2023/07/29 10:22:42;;;;;;;1.15;0.73;;;25.80;54.20;;;;;;4992630;28;20026;-63
2023/07/29 10:25:15;;;;;;;1.52;0.77;;;25.80;54.00;;;;;;4992473;28;20358;-62
2023/07/29 10:27:49;;;;;;;2.17;0.70;;;25.80;54.00;;;;;;4980584;28;20326;-63
2023/07/29 10:30:15;;;;;;;1.52;0.60;;;25.90;54.00;;;;;;4990754;28;20038;-65
2023/07/29 10:32:45;;;;;;;2.08;0.77;;;25.90;54.00;;;;;;5004433;28;20473;-64
2023/07/29 10:35:13;;;;;;;2.25;1.10;;;25.90;54.00;;;;;;4990245;28;20030;-62
2023/07/29 10:37:40;;;;;;;1.17;0.77;;;25.90;53.90;;;;;;4994063;28;20101;-65
2023/07/29 10:40:08;;;;;;;2.70;0.82;;;25.90;53.80;;;;;;4989555;28;20034;-66
2023/07/29 10:42:35;;;;;;;1.60;0.63;;;26.00;53.80;;;;;;4993525;28;20121;-66
2023/07/29 10:45:17;;;;;;;0.75;0.52;;;26.00;53.70;;;;;;4990955;28;20034;-65
2023/07/29 10:47:44;;;;;;;0.85;0.65;;;26.00;53.60;;;;;;4989555;28;20039;-68
2023/07/29 10:50:19;;;;;;;0.70;0.60;;;26.00;53.60;;;;;;4978104;28;20069;-70
2023/07/29 10:52:50;;;;;;;1.42;0.77;;;26.00;53.60;;;;;;4993720;28;20446;-68
2023/07/29 10:55:28;;;;;;;0.75;0.68;;;26.00;53.50;;;;;;4994169;28;20042;-69
2023/07/29 10:58:18;;;;;;;0.75;0.65;;;26.00;53.30;;;;;;4995227;28;20434;-68
2023/07/29 11:00:46;;;;;;;0.80;0.50;;;26.10;53.20;;;;;;4993544;28;20429;-69
2023/07/29 11:03:15;;;;;;;0.85;0.70;;;26.10;53.20;;;;;;4993729;28;20141;-69
2023/07/29 11:05:51;;;;;;;0.95;0.73;;;26.10;53.10;;;;;;5011900;28;20065;-68
2023/07/29 11:08:26;;;;;;;0.73;0.43;;;26.10;52.90;;;;;;4995797;28;20464;-65
2023/07/29 11:10:58;;;;;;;;;;;26.10;52.90;;;;;;4993492;28;20116;-68
2023/07/29 11:13:27;;;;;;;1.00;0.50;;;26.10;52.80;;;;;;4981426;28;19930;-68
2023/07/29 11:15:55;;;;;;;1.27;0.65;;;26.10;52.80;;;;;;4979630;28;20373;-69
2023/07/29 11:18:21;;;;;;;0.70;0.50;;;26.10;52.70;;;;;;4993185;28;20130;-68
2023/07/29 11:20:50;;;;;;;0.60;0.55;;;26.10;52.60;;;;;;4994171;28;20117;-65
2023/07/29 11:23:17;;;;;;;1.15;0.75;;;26.10;52.60;;;;;;4989497;28;20030;-67
2023/07/29 11:25:43;;;;;;;1.05;0.50;;;26.10;52.50;;;;;;4990008;28;20086;-66
2023/07/29 11:28:09;;;;;;;0.82;0.60;;;26.10;52.50;;;;;;4990792;28;20053;-71
2023/07/29 11:30:39;;;;;;;0.90;0.77;;;26.20;52.50;;;;;;4989493;28;20040;-68
2023/07/29 11:33:05;;;;;;;1.13;0.70;;;26.10;52.40;;;;;;4986847;28;20039;-69
2023/07/29 11:35:32;;;;;;;1.40;0.70;;;26.10;52.40;;;;;;4985063;28;20034;-67
2023/07/29 11:37:59;;;;;;;0.95;0.70;;;26.10;52.30;;;;;;4987543;28;21628;-68
2023/07/29 11:40:26;;;;;;;0.77;0.70;;;26.10;52.30;;;;;;4988080;28;20062;-67
2023/07/29 11:42:53;;;;;;;0.90;0.63;;;26.10;52.30;;;;;;4988506;28;20484;-67
2023/07/29 11:45:20;;;;;;;1.13;0.70;;;26.10;52.40;;;;;;4987548;28;20125;-68
2023/07/29 11:47:47;;;;;;;0.70;0.50;;;26.10;52.40;;;;;;4986570;28;20046;-65
2023/07/29 11:50:14;;;;;;;0.50;0.50;;;26.10;52.40;;;;;;4990123;28;20089;-65
2023/07/29 11:52:42;;;;;;;1.23;0.68;;;26.10;52.30;;;;;;4992314;28;20122;-61
2023/07/29 11:55:09;;;;;;;1.42;0.80;;;26.10;52.40;;;;;;4988662;28;20476;-63
2023/07/29 11:57:39;;;;;;;1.48;0.80;;;26.10;52.90;;;;;;4986979;28;20041;-67
2023/07/29 12:00:09;;;;;;;2.47;0.80;;;26.20;53.10;;;;;;4989209;28;20418;-67
2023/07/29 12:02:46;;;;;;;2.85;0.75;;;26.20;53.10;;;;;;4987543;28;20030;-63
2023/07/29 12:05:13;;;;;;;3.10;0.70;;;26.20;53.10;;;;;;4987960;28;20060;-66
2023/07/29 12:07:41;;;;;;;0.90;0.73;;;26.20;53.10;;;;;;4986398;28;20322;-67
2023/07/29 12:10:07;;;;;;;0.80;0.70;;;26.20;53.10;;;;;;4986873;28;20062;-63
2023/07/29 12:12:33;;;;;;;2.22;0.85;;;26.20;53.10;;;;;;4984784;28;20046;-65
2023/07/29 12:14:59;;;;;;;0.70;0.65;;;26.20;53.10;;;;;;4988962;28;20362;-64
2023/07/29 12:17:25;;;;;;;0.50;0.40;;;26.20;53.10;;;;;;4988266;28;20153;-66
2023/07/29 12:19:54;;;;;;;1.50;0.80;;;26.20;53.10;;;;;;4987606;28;20356;-66
2023/07/29 12:22:20;;;;;;;1.00;0.65;;;26.20;53.20;;;;;;4988147;28;20458;-65
2023/07/29 12:24:47;;;;;;;0.88;0.50;;;26.10;53.10;;;;;;5002647;28;20042;-66
2023/07/29 12:27:15;;;;;;;1.33;0.60;;;26.20;53.30;;;;;;4992683;28;20157;-67
2023/07/29 12:29:42;;;;;;;1.20;0.75;;;26.10;53.30;;;;;;5012013;28;20041;-68
2023/07/29 12:32:09;;;;;;;0.68;0.60;;;26.10;53.30;;;;;;5003981;28;20033;-64
2023/07/29 12:34:37;;;;;;;1.55;0.73;;;26.20;53.50;;;;;;4988703;28;20411;-66
2023/07/29 12:37:05;;;;;;;0.80;0.68;;;26.10;53.40;;;;;;4992678;28;20228;-66
2023/07/29 12:39:33;;;;;;;0.85;0.60;;;26.20;53.60;;;;;;5012433;28;20026;-65
2023/07/29 12:42:01;;;;;;;1.90;0.93;;;26.20;53.60;;;;;;5002289;28;20045;-67
2023/07/29 12:44:34;;;;;;;1.30;0.70;;;26.10;53.60;;;;;;4992799;28;20315;-66
2023/07/29 12:47:02;;;;;;;1.13;0.70;;;26.20;53.70;;;;;;4991437;28;20038;-64
2023/07/29 12:49:29;;;;;;;1.90;0.90;;;26.20;53.70;;;;;;4992337;28;20475;-66